Havbugvin — XPYL — position and weather

sailwx.info

Track history (hours):
 
Tides and Currents Weather Stations Pressure Air Temp Water Temp Dewpoint Dewpoint Depression Visibility Wind Speed Wind Dir Waves Ship Positions

Havbugvin

Last reported at 2014-Oct-02 02:33 UTC. Time now 2014-Oct-02 04:28 UTC.
Position N 62°29' W 006°48'.

Length 38 m.

Type: Fishing. MMSI: 231181000.

Date/timePositionNaut miles runAvg speedWind from/ knotsBaromVisibWave heightAir tempDewpointWater temp
2014-Oct-02 02:33N 62°29' W 006°48'1 1.1
2014-Oct-02 01:33N 62°29' W 006°50'2 1.8
2014-Oct-02 00:25N 62°30' W 006°46'2 2.5
2014-Oct-01 23:33N 62°29' W 006°51'3 2.1
2014-Oct-01 22:06N 62°30' W 006°45'2 3.2
2014-Oct-01 21:22N 62°29' W 006°49'1 1.3
2014-Oct-01 20:32N 62°30' W 006°47'1 1.4
2014-Oct-01 19:29N 62°29' W 006°50'5 4.7
2014-Oct-01 18:32N 62°25' W 006°54'7 6.9
2014-Oct-01 17:33N 62°19' W 006°49'4 4.2
2014-Oct-01 16:33N 62°14' W 006°49'0 0.0
2014-Oct-01 15:33N 62°14' W 006°49'0 0.0
2014-Oct-01 14:33N 62°14' W 006°49'0 0.0
2014-Oct-01 13:33N 62°14' W 006°49'0 0.0
2014-Oct-01 12:33N 62°14' W 006°49'0 0.0
2014-Oct-01 11:33N 62°14' W 006°49'0 0.0
2014-Oct-01 10:33N 62°14' W 006°49'0 0.0
2014-Oct-01 09:33N 62°14' W 006°49'0 0.0
2014-Oct-01 08:33N 62°14' W 006°49'0 0.0
2014-Oct-01 07:33N 62°14' W 006°49'0 0.0
2014-Oct-01 06:33N 62°14' W 006°49'3 3.4
2014-Oct-01 05:33N 62°18' W 006°48'7 7.1
2014-Oct-01 04:33N 62°23' W 006°58'14 1.4
2014-Sep-30 18:19N 62°35' W 007°15'1 1.1
2014-Sep-30 17:29N 62°35' W 007°14'1 0.2
2014-Sep-30 10:16N 62°34' W 007°16'2 0.7
2014-Sep-30 07:11N 62°33' W 007°13'9 5.4
2014-Sep-30 05:32N 62°42' W 007°13'7 6.8
2014-Sep-30 04:31N 62°36' W 007°07'8 8.4
2014-Sep-30 03:33N 62°28' W 006°60'9 8.7
2014-Sep-30 02:33N 62°20' W 006°51'8 7.9
2014-Sep-30 01:33N 62°13' W 006°42'5 4.6
2014-Sep-30 00:31N 62°10' W 006°35'7 7.7
2014-Sep-29 23:33N 62°03' W 006°40'4 3.9
2014-Sep-29 22:33N 62°00' W 006°46'0 0.0
2014-Sep-29 21:33N 62°00' W 006°46'0 0.1
2014-Sep-29 20:33N 62°00' W 006°46'0 0.0
2014-Sep-29 19:33N 62°00' W 006°46'0 0.0
2014-Sep-29 18:33N 62°00' W 006°46'0 0.0
2014-Sep-29 17:33N 62°00' W 006°46'0 0.0
2014-Sep-29 16:33N 62°00' W 006°46'0 0.0
2014-Sep-29 15:33N 62°00' W 006°46'0 0.0
2014-Sep-29 14:33N 62°00' W 006°46'0 0.0
2014-Sep-29 13:33N 62°00' W 006°46'0 0.0
2014-Sep-29 12:33N 62°00' W 006°46'0 0.0
2014-Sep-29 11:33N 62°00' W 006°46'0 0.0
2014-Sep-29 10:33N 62°00' W 006°46'0 0.0
2014-Sep-29 09:33N 62°00' W 006°46'0 0.0
2014-Sep-29 08:33N 62°00' W 006°46'0 0.0
2014-Sep-29 07:33N 62°00' W 006°46'0 0.0
2014-Sep-29 06:33N 62°00' W 006°46'0 0.0
2014-Sep-29 05:33N 62°00' W 006°46'0 0.0
2014-Sep-29 04:33N 62°00' W 006°46'0 0.0
2014-Sep-29 03:33N 62°00' W 006°46'0 0.0
2014-Sep-29 02:33N 62°00' W 006°46'0 0.0
2014-Sep-29 01:33N 62°00' W 006°46'0 0.0
2014-Sep-29 00:33N 62°00' W 006°46'0 0.0
2014-Sep-28 23:33N 62°00' W 006°46'0 0.0
2014-Sep-28 22:33N 62°00' W 006°46'0 0.0
2014-Sep-28 21:33N 62°00' W 006°46'0 0.0
2014-Sep-28 20:33N 62°00' W 006°46'0 0.0
2014-Sep-28 19:33N 62°00' W 006°46'0 0.0
2014-Sep-28 18:33N 62°00' W 006°46'0 0.0
2014-Sep-28 17:33N 62°00' W 006°46'0 0.0
2014-Sep-28 16:33N 62°00' W 006°46'0 0.0
2014-Sep-28 15:33N 62°00' W 006°46'0 0.0
2014-Sep-28 14:33N 62°00' W 006°46'0 0.0
2014-Sep-28 13:33N 62°00' W 006°46'0 0.0
2014-Sep-28 12:33N 62°00' W 006°46'0 0.0
2014-Sep-28 11:33N 62°00' W 006°46'0 0.0
2014-Sep-28 10:33N 62°00' W 006°46'0 0.0
2014-Sep-28 09:33N 62°00' W 006°46'0 0.0
2014-Sep-28 08:33N 62°00' W 006°46'0 0.0
2014-Sep-28 07:33N 62°00' W 006°46'0 0.0
2014-Sep-28 06:33N 62°00' W 006°46'0 0.0
2014-Sep-28 05:33N 62°00' W 006°46'0 0.0
2014-Sep-28 04:33N 62°00' W 006°46'0 0.0
2014-Sep-28 03:33N 62°00' W 006°46'0 0.0
2014-Sep-28 02:33N 62°00' W 006°46'0 0.0
2014-Sep-28 01:33N 62°00' W 006°46'0 0.0
2014-Sep-28 00:33N 62°00' W 006°46'0 0.0
2014-Sep-27 23:33N 62°00' W 006°46'0 0.0
2014-Sep-27 22:33N 62°00' W 006°46'0 0.0
2014-Sep-27 21:33N 62°00' W 006°46'0 0.0
2014-Sep-27 20:33N 62°00' W 006°46'0 0.0
2014-Sep-27 19:33N 62°00' W 006°46'0 0.0
2014-Sep-27 18:33N 62°00' W 006°46'0 0.0
2014-Sep-26 12:30N 62°00' W 006°46'0 0.0
2014-Sep-26 11:33N 62°00' W 006°46'0 0.0
2014-Sep-26 10:33N 62°00' W 006°46'0 0.0
2014-Sep-26 09:33N 62°00' W 006°46'0 0.0
2014-Sep-26 08:33N 62°00' W 006°46'0 0.0
2014-Sep-26 07:33N 62°00' W 006°46'0 0.0
2014-Sep-26 06:33N 62°00' W 006°46'0 0.0
2014-Sep-26 05:33N 62°00' W 006°46'2 2.4
2014-Sep-26 04:33N 61°59' W 006°43'8 8.4
2014-Sep-26 03:33N 61°51' W 006°36'  
Track history (hours):
 
Tides and Currents Weather Stations Pressure Air Temp Water Temp Dewpoint Dewpoint Depression Visibility Wind Speed Wind Dir Waves Ship Positions

Havbugvin

Last reported at 2014-Oct-02 02:33 UTC. Time now 2014-Oct-02 04:28 UTC.
Position N 62°29' W 006°48'.

Length 38 m.

Type: Fishing. MMSI: 231181000.

Date/timePositionNaut miles runAvg speedWind from/ knotsBaromVisibWave heightAir tempDewpointWater temp
2014-Oct-02 02:33N 62°29' W 006°48'1 1.1
2014-Oct-02 01:33N 62°29' W 006°50'2 1.8
2014-Oct-02 00:25N 62°30' W 006°46'2 2.5
2014-Oct-01 23:33N 62°29' W 006°51'3 2.1
2014-Oct-01 22:06N 62°30' W 006°45'2 3.2
2014-Oct-01 21:22N 62°29' W 006°49'1 1.3
2014-Oct-01 20:32N 62°30' W 006°47'1 1.4
2014-Oct-01 19:29N 62°29' W 006°50'5 4.7
2014-Oct-01 18:32N 62°25' W 006°54'7 6.9
2014-Oct-01 17:33N 62°19' W 006°49'4 4.2
2014-Oct-01 16:33N 62°14' W 006°49'0 0.0
2014-Oct-01 15:33N 62°14' W 006°49'0 0.0
2014-Oct-01 14:33N 62°14' W 006°49'0 0.0
2014-Oct-01 13:33N 62°14' W 006°49'0 0.0
2014-Oct-01 12:33N 62°14' W 006°49'0 0.0
2014-Oct-01 11:33N 62°14' W 006°49'0 0.0
2014-Oct-01 10:33N 62°14' W 006°49'0 0.0
2014-Oct-01 09:33N 62°14' W 006°49'0 0.0
2014-Oct-01 08:33N 62°14' W 006°49'0 0.0
2014-Oct-01 07:33N 62°14' W 006°49'0 0.0
2014-Oct-01 06:33N 62°14' W 006°49'3 3.4
2014-Oct-01 05:33N 62°18' W 006°48'7 7.1
2014-Oct-01 04:33N 62°23' W 006°58'14 1.4
2014-Sep-30 18:19N 62°35' W 007°15'1 1.1
2014-Sep-30 17:29N 62°35' W 007°14'1 0.2
2014-Sep-30 10:16N 62°34' W 007°16'2 0.7
2014-Sep-30 07:11N 62°33' W 007°13'9 5.4
2014-Sep-30 05:32N 62°42' W 007°13'7 6.8
2014-Sep-30 04:31N 62°36' W 007°07'8 8.4
2014-Sep-30 03:33N 62°28' W 006°60'9 8.7
2014-Sep-30 02:33N 62°20' W 006°51'8 7.9
2014-Sep-30 01:33N 62°13' W 006°42'5 4.6
2014-Sep-30 00:31N 62°10' W 006°35'7 7.7
2014-Sep-29 23:33N 62°03' W 006°40'4 3.9
2014-Sep-29 22:33N 62°00' W 006°46'0 0.0
2014-Sep-29 21:33N 62°00' W 006°46'0 0.1
2014-Sep-29 20:33N 62°00' W 006°46'0 0.0
2014-Sep-29 19:33N 62°00' W 006°46'0 0.0
2014-Sep-29 18:33N 62°00' W 006°46'0 0.0
2014-Sep-29 17:33N 62°00' W 006°46'0 0.0
2014-Sep-29 16:33N 62°00' W 006°46'0 0.0
2014-Sep-29 15:33N 62°00' W 006°46'0 0.0
2014-Sep-29 14:33N 62°00' W 006°46'0 0.0
2014-Sep-29 13:33N 62°00' W 006°46'0 0.0
2014-Sep-29 12:33N 62°00' W 006°46'0 0.0
2014-Sep-29 11:33N 62°00' W 006°46'0 0.0
2014-Sep-29 10:33N 62°00' W 006°46'0 0.0
2014-Sep-29 09:33N 62°00' W 006°46'0 0.0
2014-Sep-29 08:33N 62°00' W 006°46'0 0.0
2014-Sep-29 07:33N 62°00' W 006°46'0 0.0
2014-Sep-29 06:33N 62°00' W 006°46'0 0.0
2014-Sep-29 05:33N 62°00' W 006°46'0 0.0
2014-Sep-29 04:33N 62°00' W 006°46'0 0.0
2014-Sep-29 03:33N 62°00' W 006°46'0 0.0
2014-Sep-29 02:33N 62°00' W 006°46'0 0.0
2014-Sep-29 01:33N 62°00' W 006°46'0 0.0
2014-Sep-29 00:33N 62°00' W 006°46'0 0.0
2014-Sep-28 23:33N 62°00' W 006°46'0 0.0
2014-Sep-28 22:33N 62°00' W 006°46'0 0.0
2014-Sep-28 21:33N 62°00' W 006°46'0 0.0
2014-Sep-28 20:33N 62°00' W 006°46'0 0.0
2014-Sep-28 19:33N 62°00' W 006°46'0 0.0
2014-Sep-28 18:33N 62°00' W 006°46'0 0.0
2014-Sep-28 17:33N 62°00' W 006°46'0 0.0
2014-Sep-28 16:33N 62°00' W 006°46'0 0.0
2014-Sep-28 15:33N 62°00' W 006°46'0 0.0
2014-Sep-28 14:33N 62°00' W 006°46'0 0.0
2014-Sep-28 13:33N 62°00' W 006°46'0 0.0
2014-Sep-28 12:33N 62°00' W 006°46'0 0.0
2014-Sep-28 11:33N 62°00' W 006°46'0 0.0
2014-Sep-28 10:33N 62°00' W 006°46'0 0.0
2014-Sep-28 09:33N 62°00' W 006°46'0 0.0
2014-Sep-28 08:33N 62°00' W 006°46'0 0.0
2014-Sep-28 07:33N 62°00' W 006°46'0 0.0
2014-Sep-28 06:33N 62°00' W 006°46'0 0.0
2014-Sep-28 05:33N 62°00' W 006°46'0 0.0
2014-Sep-28 04:33N 62°00' W 006°46'0 0.0
2014-Sep-28 03:33N 62°00' W 006°46'0 0.0
2014-Sep-28 02:33N 62°00' W 006°46'0 0.0
2014-Sep-28 01:33N 62°00' W 006°46'0 0.0
2014-Sep-28 00:33N 62°00' W 006°46'0 0.0
2014-Sep-27 23:33N 62°00' W 006°46'0 0.0
2014-Sep-27 22:33N 62°00' W 006°46'0 0.0
2014-Sep-27 21:33N 62°00' W 006°46'0 0.0
2014-Sep-27 20:33N 62°00' W 006°46'0 0.0
2014-Sep-27 19:33N 62°00' W 006°46'0 0.0
2014-Sep-27 18:33N 62°00' W 006°46'0 0.0
2014-Sep-26 12:30N 62°00' W 006°46'0 0.0
2014-Sep-26 11:33N 62°00' W 006°46'0 0.0
2014-Sep-26 10:33N 62°00' W 006°46'0 0.0
2014-Sep-26 09:33N 62°00' W 006°46'0 0.0
2014-Sep-26 08:33N 62°00' W 006°46'0 0.0
2014-Sep-26 07:33N 62°00' W 006°46'0 0.0
2014-Sep-26 06:33N 62°00' W 006°46'0 0.0
2014-Sep-26 05:33N 62°00' W 006°46'2 2.4
2014-Sep-26 04:33N 61°59' W 006°43'8 8.4
2014-Sep-26 03:33N 61°51' W 006°36'  

Dump ship's entire track history